Time;durP1;ratioP1;P1;durP2;ratioP2;P2;SDS_P1;SDS_P2;PMS_P1;PMS_P2;Temp;Humidity;BMP_temperature;BMP_pressure;BME280_temperature;BME280_humidity;BME280_pressure;Samples;Min_cycle;Max_cycle;Signal;HPM_P1;HPM_P2
2023/07/09 00:01:39;;;;;;;3.25;2.67;;;29.00;39.90;;;;;;5148681;27;45298;-71
2023/07/09 00:04:05;;;;;;;4.25;2.65;;;28.90;39.90;;;;;;5148728;27;45328;-71
2023/07/09 00:06:32;;;;;;;4.30;2.70;;;29.00;40.00;;;;;;5147306;27;45264;-70
2023/07/09 00:08:59;;;;;;;3.95;2.90;;;29.00;39.80;;;;;;5140084;27;45339;-71
2023/07/09 00:11:26;;;;;;;9.20;3.35;;;28.80;41.00;;;;;;5143913;27;46485;-69
2023/07/09 00:13:53;;;;;;;3.47;3.00;;;28.70;42.30;;;;;;5146597;27;45413;-70
2023/07/09 00:16:24;;;;;;;6.13;3.30;;;28.60;42.90;;;;;;5147798;27;45462;-71
2023/07/09 00:18:50;;;;;;;3.05;2.78;;;28.50;43.30;;;;;;5149346;27;45351;-70
2023/07/09 00:21:17;;;;;;;4.60;2.80;;;28.40;43.50;;;;;;5148372;27;45324;-70
2023/07/09 00:23:44;;;;;;;4.50;2.90;;;28.40;43.50;;;;;;5147559;27;45392;-70
2023/07/09 00:26:11;;;;;;;6.30;3.22;;;28.40;43.40;;;;;;5147273;27;45263;-72
2023/07/09 00:28:38;;;;;;;5.47;3.08;;;28.40;43.60;;;;;;5148761;27;45379;-71
2023/07/09 00:31:05;;;;;;;3.80;2.80;;;28.40;43.70;;;;;;5148226;27;48792;-70
2023/07/09 00:33:33;;;;;;;3.97;3.00;;;28.40;43.80;;;;;;5147042;27;45473;-69
2023/07/09 00:36:00;;;;;;;6.47;3.28;;;28.40;43.90;;;;;;5146656;27;45583;-70
2023/07/09 00:38:27;;;;;;;5.97;3.15;;;28.30;43.80;;;;;;5147278;27;45405;-70
2023/07/09 00:41:02;;;;;;;4.68;3.47;;;28.30;43.90;;;;;;5146433;27;46427;-69
2023/07/09 00:43:31;;;;;;;4.97;3.30;;;28.20;44.00;;;;;;5146870;27;45477;-70
2023/07/09 00:46:16;;;;;;;4.35;3.55;;;28.30;44.00;;;;;;5147504;27;45523;-70
2023/07/09 00:48:44;;;;;;;5.18;3.63;;;28.20;44.10;;;;;;5146788;27;45468;-71
2023/07/09 00:51:11;;;;;;;4.57;3.22;;;28.20;44.30;;;;;;5147100;27;46755;-71
2023/07/09 00:53:39;;;;;;;5.57;3.17;;;28.20;44.40;;;;;;5148234;27;45179;-70
2023/07/09 00:56:07;;;;;;;5.63;3.10;;;28.20;44.40;;;;;;5148280;27;45339;-70
2023/07/09 00:58:35;;;;;;;3.85;2.85;;;28.30;44.30;;;;;;5148679;27;45115;-70
2023/07/09 01:01:03;;;;;;;3.75;3.10;;;28.30;44.00;;;;;;5151721;27;45565;-70
2023/07/09 01:03:33;;;;;;;4.90;2.97;;;28.30;43.80;;;;;;5152133;27;45315;-70
2023/07/09 01:06:01;;;;;;;4.45;2.83;;;28.40;43.70;;;;;;5152356;27;45417;-70
2023/07/09 01:08:30;;;;;;;3.90;3.30;;;28.40;43.40;;;;;;5151501;27;45308;-70
2023/07/09 01:10:57;;;;;;;4.80;2.80;;;28.40;43.30;;;;;;5151214;27;45342;-69
2023/07/09 01:13:26;;;;;;;3.33;2.90;;;28.40;43.10;;;;;;5151777;27;45255;-69
2023/07/09 01:15:53;;;;;;;3.67;2.75;;;28.40;43.00;;;;;;5151998;27;45332;-69
2023/07/09 01:18:21;;;;;;;5.15;3.00;;;28.40;42.90;;;;;;5151973;27;45386;-70
2023/07/09 01:20:47;;;;;;;3.67;3.20;;;28.40;42.80;;;;;;5151385;27;45581;-70
2023/07/09 01:23:16;;;;;;;2.97;2.58;;;28.40;42.70;;;;;;5151353;27;45325;-69
2023/07/09 01:25:52;;;;;;;4.13;2.95;;;28.40;42.70;;;;;;5151915;27;45422;-69
2023/07/09 01:28:20;;;;;;;4.35;2.97;;;28.40;42.70;;;;;;5151842;27;45438;-70
2023/07/09 01:30:53;;;;;;;3.08;2.80;;;28.40;42.60;;;;;;5151271;27;46675;-70
2023/07/09 01:33:20;;;;;;;5.30;3.22;;;28.40;42.60;;;;;;5151282;27;45383;-70
2023/07/09 01:35:47;;;;;;;3.10;2.80;;;28.40;42.50;;;;;;5151629;27;45320;-72
2023/07/09 01:38:16;;;;;;;4.95;3.05;;;28.30;42.40;;;;;;5151270;27;45398;-70
2023/07/09 01:40:43;;;;;;;3.88;3.22;;;28.30;42.40;;;;;;5151162;27;45248;-70
2023/07/09 01:43:09;;;;;;;5.20;3.10;;;28.30;42.40;;;;;;5150916;27;45423;-70
2023/07/09 01:45:37;;;;;;;3.63;2.78;;;28.30;42.40;;;;;;5151130;27;45338;-69
2023/07/09 01:48:04;;;;;;;4.00;2.72;;;28.30;42.40;;;;;;5151334;27;45424;-70
2023/07/09 01:50:31;;;;;;;3.65;2.78;;;28.30;42.30;;;;;;5150714;27;45269;-70
2023/07/09 01:52:58;;;;;;;3.65;2.60;;;28.30;42.30;;;;;;5149660;27;45385;-69
2023/07/09 01:55:26;;;;;;;4.55;2.97;;;28.30;42.30;;;;;;5150240;27;44777;-70
2023/07/09 01:57:53;;;;;;;3.58;2.40;;;28.20;42.20;;;;;;5147732;27;45319;-70
2023/07/09 02:00:20;;;;;;;3.13;2.83;;;28.20;42.20;;;;;;5149401;27;46532;-71
2023/07/09 02:02:47;;;;;;;5.70;3.13;;;28.20;42.20;;;;;;5149892;27;45428;-70
2023/07/09 02:05:15;;;;;;;3.42;2.85;;;28.20;42.10;;;;;;5150151;27;45301;-70
2023/07/09 02:07:42;;;;;;;3.72;3.10;;;28.20;42.20;;;;;;5149950;27;45400;-70
2023/07/09 02:10:09;;;;;;;3.05;2.58;;;28.20;42.10;;;;;;5148878;27;46283;-70
2023/07/09 02:12:38;;;;;;;3.58;3.03;;;28.20;42.20;;;;;;5149501;27;45260;-70
2023/07/09 02:15:06;;;;;;;3.08;2.78;;;28.20;42.20;;;;;;5149959;27;45407;-69
2023/07/09 02:17:32;;;;;;;4.50;3.10;;;28.20;42.10;;;;;;5149890;27;45481;-70
2023/07/09 02:19:59;;;;;;;3.05;2.70;;;28.20;42.10;;;;;;5149189;27;46260;-70
2023/07/09 02:22:26;;;;;;;4.10;2.88;;;28.10;42.00;;;;;;5149227;27;45183;-69
2023/07/09 02:24:53;;;;;;;3.15;2.85;;;28.20;42.20;;;;;;5149193;27;45318;-70
2023/07/09 02:27:20;;;;;;;3.53;3.00;;;28.10;42.10;;;;;;5149412;27;45581;-70
2023/07/09 02:29:48;;;;;;;3.38;2.80;;;28.10;42.10;;;;;;5148873;27;46408;-69
2023/07/09 02:32:18;;;;;;;3.25;2.75;;;28.10;42.10;;;;;;5148955;27;45351;-70
2023/07/09 02:34:48;;;;;;;3.38;3.08;;;28.10;42.10;;;;;;5149273;27;45330;-70
2023/07/09 02:37:16;;;;;;;3.22;2.85;;;28.10;42.10;;;;;;5149213;27;45411;-69
2023/07/09 02:39:42;;;;;;;4.30;3.03;;;28.00;42.10;;;;;;5148592;27;46396;-69
2023/07/09 02:42:10;;;;;;;3.72;3.13;;;28.00;42.10;;;;;;5148793;27;45306;-70
2023/07/09 02:44:37;;;;;;;3.15;2.65;;;28.00;42.10;;;;;;5148995;27;45318;-70
2023/07/09 02:47:05;;;;;;;3.17;2.75;;;28.00;42.10;;;;;;5148900;27;45415;-69
2023/07/09 02:49:32;;;;;;;3.47;2.97;;;28.00;42.10;;;;;;5148020;27;45316;-70
2023/07/09 02:51:59;;;;;;;3.03;2.58;;;28.00;42.10;;;;;;5108469;27;1131708;-69
2023/07/09 02:54:25;;;;;;;4.70;2.95;;;28.00;42.10;;;;;;5149802;27;45454;-69
2023/07/09 02:56:52;;;;;;;3.25;2.80;;;27.90;42.10;;;;;;5150111;27;45307;-70
2023/07/09 02:59:19;;;;;;;3.15;2.65;;;27.90;42.20;;;;;;5149478;27;45308;-70
2023/07/09 03:01:47;;;;;;;3.00;2.72;;;27.90;42.10;;;;;;5149464;27;45194;-69
2023/07/09 03:04:15;;;;;;;3.42;3.13;;;27.90;42.20;;;;;;5149742;27;45126;-70
2023/07/09 03:06:42;;;;;;;2.78;2.47;;;27.90;42.20;;;;;;5149727;27;45490;-69
2023/07/09 03:09:09;;;;;;;3.00;2.70;;;27.90;42.20;;;;;;5149579;27;45326;-70
2023/07/09 03:11:36;;;;;;;3.40;2.78;;;27.90;42.10;;;;;;5149314;27;45276;-69
2023/07/09 03:14:03;;;;;;;2.90;2.60;;;27.90;42.20;;;;;;5149604;27;45329;-69
2023/07/09 03:16:31;;;;;;;3.42;2.80;;;27.80;42.10;;;;;;5149783;27;45528;-70
2023/07/09 03:18:58;;;;;;;3.45;2.83;;;27.80;42.10;;;;;;5149341;27;45387;-69
2023/07/09 03:21:27;;;;;;;3.08;2.78;;;27.80;42.10;;;;;;5148364;27;45331;-69
2023/07/09 03:23:54;;;;;;;3.38;2.90;;;27.80;42.10;;;;;;5149582;27;45222;-69
2023/07/09 03:26:21;;;;;;;3.13;2.83;;;27.80;42.10;;;;;;5149577;27;45348;-69
2023/07/09 03:28:48;;;;;;;3.05;2.78;;;27.70;42.00;;;;;;5149124;27;46358;-69
2023/07/09 03:31:16;;;;;;;3.38;2.95;;;27.70;42.10;;;;;;5149069;27;45415;-70
2023/07/09 03:33:43;;;;;;;3.03;2.72;;;27.70;42.10;;;;;;5149387;27;45330;-69
2023/07/09 03:36:10;;;;;;;3.47;2.80;;;27.70;42.10;;;;;;5149157;27;45493;-69
2023/07/09 03:38:38;;;;;;;4.22;2.90;;;27.70;42.10;;;;;;5148969;27;45504;-69
2023/07/09 03:41:06;;;;;;;3.97;2.70;;;27.70;42.20;;;;;;5149141;27;45342;-69
2023/07/09 03:43:32;;;;;;;3.10;2.80;;;27.60;42.10;;;;;;5149541;27;45314;-69
2023/07/09 03:45:59;;;;;;;2.83;2.60;;;27.60;42.20;;;;;;5149176;27;45382;-70
2023/07/09 03:48:26;;;;;;;3.10;2.80;;;27.60;42.20;;;;;;5148988;27;46349;-70
2023/07/09 03:50:53;;;;;;;3.75;2.85;;;27.60;42.20;;;;;;5148726;27;45402;-70
2023/07/09 03:53:20;;;;;;;3.25;2.90;;;27.60;42.20;;;;;;5149070;27;45372;-70
2023/07/09 03:55:51;;;;;;;2.83;2.58;;;27.60;42.10;;;;;;5149115;27;45430;-70
2023/07/09 03:58:18;;;;;;;2.45;2.25;;;27.60;42.10;;;;;;5148778;27;45389;-70
2023/07/09 04:00:45;;;;;;;3.15;2.85;;;27.50;42.10;;;;;;5148877;27;45374;-69
2023/07/09 04:03:12;;;;;;;3.60;3.08;;;27.50;42.10;;;;;;5148977;27;45300;-69
2023/07/09 04:05:38;;;;;;;2.97;2.47;;;27.50;42.10;;;;;;5149264;27;45310;-69
2023/07/09 04:08:05;;;;;;;3.20;2.65;;;27.50;42.10;;;;;;5148646;27;46333;-69
2023/07/09 04:10:32;;;;;;;3.72;2.85;;;27.50;42.10;;;;;;5148504;27;45323;-69
2023/07/09 04:13:00;;;;;;;2.90;2.60;;;27.50;42.10;;;;;;5148797;27;45297;-70
2023/07/09 04:15:27;;;;;;;4.78;2.63;;;27.50;42.10;;;;;;5148990;27;45209;-69
2023/07/09 04:17:54;;;;;;;2.97;2.53;;;27.50;42.10;;;;;;5148605;27;45612;-69
2023/07/09 04:20:21;;;;;;;3.30;2.88;;;27.40;42.10;;;;;;5148067;27;45329;-70
2023/07/09 04:22:48;;;;;;;3.35;2.63;;;27.40;42.10;;;;;;5148141;27;45341;-69
2023/07/09 04:25:15;;;;;;;3.15;2.50;;;27.40;42.10;;;;;;5148824;27;45509;-70
2023/07/09 04:27:41;;;;;;;2.90;2.70;;;27.40;42.10;;;;;;5148208;27;45468;-70
2023/07/09 04:30:11;;;;;;;2.97;2.67;;;27.40;42.20;;;;;;5148607;27;45450;-69
2023/07/09 04:32:38;;;;;;;3.95;2.45;;;27.40;42.10;;;;;;5148321;27;45296;-69
2023/07/09 04:35:06;;;;;;;3.00;2.70;;;27.30;42.10;;;;;;5148500;27;45477;-69
2023/07/09 04:37:33;;;;;;;3.30;3.00;;;27.40;42.20;;;;;;5148248;27;45504;-69
2023/07/09 04:40:00;;;;;;;3.35;2.42;;;27.30;42.10;;;;;;5148257;27;45280;-69
2023/07/09 04:42:26;;;;;;;3.00;2.53;;;27.30;42.10;;;;;;5148362;27;45416;-69
2023/07/09 04:44:53;;;;;;;3.95;2.67;;;27.30;42.10;;;;;;5148626;27;45359;-69
2023/07/09 04:47:21;;;;;;;20.63;2.80;;;27.30;42.10;;;;;;5148047;27;46672;-75
2023/07/09 04:49:48;;;;;;;3.45;2.75;;;27.30;42.60;;;;;;5148536;27;45346;-75
2023/07/09 04:52:15;;;;;;;2.78;2.45;;;27.30;42.50;;;;;;5148013;27;45328;-69
2023/07/09 04:54:44;;;;;;;3.08;2.78;;;27.30;42.30;;;;;;5148354;27;45417;-69
2023/07/09 04:57:10;;;;;;;4.15;2.65;;;27.40;42.40;;;;;;5148305;27;45627;-70
2023/07/09 04:59:37;;;;;;;2.97;2.60;;;27.50;42.30;;;;;;5148186;27;45313;-70
2023/07/09 05:02:04;;;;;;;3.10;2.80;;;27.50;42.10;;;;;;5148169;27;45330;-70
2023/07/09 05:04:33;;;;;;;3.55;2.65;;;27.60;42.40;;;;;;5148097;27;45456;-69
2023/07/09 05:06:59;;;;;;;4.75;3.25;;;27.60;42.80;;;;;;5147302;27;46676;-69
2023/07/09 05:09:26;;;;;;;3.03;2.67;;;27.60;43.30;;;;;;5147534;27;45454;-70
2023/07/09 05:11:53;;;;;;;4.97;2.88;;;27.60;43.50;;;;;;5147673;27;45257;-70
2023/07/09 05:14:20;;;;;;;5.00;2.78;;;27.50;43.70;;;;;;5148247;27;45456;-70
2023/07/09 05:16:47;;;;;;;4.75;3.20;;;27.50;44.20;;;;;;5148124;27;45377;-70
2023/07/09 05:19:13;;;;;;;4.40;2.78;;;27.50;44.40;;;;;;5147770;27;45393;-70
2023/07/09 05:21:41;;;;;;;5.65;3.50;;;27.50;44.60;;;;;;5145229;27;45426;-70
2023/07/09 05:24:08;;;;;;;6.05;2.88;;;27.40;44.80;;;;;;5136763;27;45264;-70
2023/07/09 05:26:35;;;;;;;4.32;3.00;;;27.40;44.90;;;;;;5126772;27;46658;-70
2023/07/09 05:29:03;;;;;;;3.95;3.00;;;27.40;44.90;;;;;;5126899;27;45442;-70
2023/07/09 05:31:32;;;;;;;3.50;3.00;;;27.30;44.90;;;;;;5126666;27;45387;-70
2023/07/09 05:34:00;;;;;;;7.35;2.70;;;27.40;45.00;;;;;;5124499;27;45311;-70
2023/07/09 05:36:27;;;;;;;4.43;3.45;;;27.30;44.80;;;;;;5126745;27;46389;-70
2023/07/09 05:38:55;;;;;;;4.65;3.15;;;27.40;44.80;;;;;;5126743;27;45343;-70
2023/07/09 05:41:23;;;;;;;4.30;2.95;;;27.30;44.80;;;;;;5126839;27;45299;-70
2023/07/09 05:43:50;;;;;;;4.53;3.22;;;27.30;45.00;;;;;;5126834;27;45439;-70
2023/07/09 05:46:17;;;;;;;4.38;3.33;;;27.30;45.30;;;;;;5129440;27;46341;-71
2023/07/09 05:48:44;;;;;;;4.15;3.10;;;27.30;45.40;;;;;;5130286;27;45370;-70
2023/07/09 05:51:11;;;;;;;3.97;3.33;;;27.30;45.40;;;;;;5130073;27;45466;-70
2023/07/09 05:53:37;;;;;;;4.20;3.53;;;27.30;45.40;;;;;;5129979;27;45245;-70
2023/07/09 05:56:06;;;;;;;3.22;2.80;;;27.30;45.40;;;;;;5129997;27;45481;-70
2023/07/09 05:58:33;;;;;;;7.68;3.40;;;27.30;45.60;;;;;;5129694;27;45388;-70
2023/07/09 06:01:00;;;;;;;6.00;3.10;;;27.30;45.70;;;;;;5129928;27;45337;-70
2023/07/09 06:03:27;;;;;;;5.00;3.28;;;27.30;45.80;;;;;;5137595;27;45403;-70
2023/07/09 06:05:54;;;;;;;4.75;3.42;;;27.30;45.80;;;;;;5150718;27;46580;-70
2023/07/09 06:08:21;;;;;;;4.50;3.28;;;27.30;45.60;;;;;;5151049;27;45318;-71
2023/07/09 06:10:55;;;;;;;3.33;3.03;;;27.30;45.60;;;;;;5150726;27;45319;-69
2023/07/09 06:13:23;;;;;;;3.40;3.10;;;27.30;45.60;;;;;;5151158;27;45402;-70
2023/07/09 06:15:50;;;;;;;3.97;2.88;;;27.30;45.60;;;;;;5150575;27;46426;-70
2023/07/09 06:18:17;;;;;;;5.63;3.17;;;27.30;45.70;;;;;;5150405;27;45332;-70
2023/07/09 06:20:48;;;;;;;4.72;2.95;;;27.30;46.30;;;;;;5150449;27;45420;-70
2023/07/09 06:23:15;;;;;;;5.45;2.75;;;27.30;45.60;;;;;;5150814;27;45385;-70
2023/07/09 06:25:42;;;;;;;4.22;2.90;;;27.30;45.50;;;;;;5150373;27;45319;-70
2023/07/09 06:28:08;;;;;;;4.47;2.95;;;27.30;45.40;;;;;;5150480;27;45252;-70
2023/07/09 06:30:37;;;;;;;3.83;3.00;;;27.30;45.40;;;;;;5150537;27;45164;-70
2023/07/09 06:33:04;;;;;;;3.15;2.60;;;27.40;45.40;;;;;;5150798;27;45508;-70
2023/07/09 06:35:31;;;;;;;4.80;2.95;;;27.30;45.30;;;;;;5150573;27;46464;-70
2023/07/09 06:37:57;;;;;;;3.53;2.72;;;27.30;45.40;;;;;;5150194;27;45433;-70
2023/07/09 06:40:24;;;;;;;3.53;2.78;;;27.30;45.40;;;;;;5143724;27;45511;-70
2023/07/09 06:42:51;;;;;;;9.68;3.00;;;27.30;45.40;;;;;;5145812;27;45310;-70
2023/07/09 06:45:18;;;;;;;6.15;3.10;;;27.30;45.40;;;;;;5140822;27;47821;-69
2023/07/09 06:47:46;;;;;;;4.53;2.88;;;27.30;45.40;;;;;;5150227;27;45374;-70
2023/07/09 06:50:13;;;;;;;3.60;3.08;;;27.30;45.30;;;;;;5150394;27;45286;-69
2023/07/09 06:52:40;;;;;;;5.75;2.92;;;27.30;45.30;;;;;;5148656;27;45489;-70
2023/07/09 06:55:07;;;;;;;5.68;2.80;;;27.30;45.60;;;;;;5148269;27;45517;-70
2023/07/09 06:57:34;;;;;;;3.42;2.72;;;27.40;45.70;;;;;;5148357;27;45303;-70
2023/07/09 07:00:01;;;;;;;4.90;2.78;;;27.40;45.80;;;;;;5149996;27;45317;-70
2023/07/09 07:02:33;;;;;;;4.47;3.25;;;27.40;45.80;;;;;;5150157;27;45402;-69
2023/07/09 07:05:01;;;;;;;4.15;3.00;;;27.40;45.80;;;;;;5149359;27;45401;-69
2023/07/09 07:07:28;;;;;;;3.72;2.80;;;27.40;45.90;;;;;;5150013;27;45382;-69
2023/07/09 07:09:54;;;;;;;3.60;2.63;;;27.50;45.90;;;;;;5149964;27;45320;-70
2023/07/09 07:12:25;;;;;;;3.75;3.00;;;27.50;45.80;;;;;;5149905;27;45234;-70
2023/07/09 07:14:51;;;;;;;4.40;3.13;;;27.50;45.70;;;;;;5145666;27;46592;-70
2023/07/09 07:17:18;;;;;;;4.35;3.00;;;27.50;45.60;;;;;;5149039;27;45323;-70
2023/07/09 07:19:45;;;;;;;4.63;2.97;;;27.60;45.60;;;;;;5149110;27;45304;-70
2023/07/09 07:22:14;;;;;;;5.28;3.05;;;27.60;45.40;;;;;;5146819;27;45654;-70
2023/07/09 07:24:41;;;;;;;4.60;3.28;;;27.60;45.20;;;;;;5149696;27;46661;-70
2023/07/09 07:27:08;;;;;;;8.23;3.33;;;27.70;45.30;;;;;;5149038;27;45331;-70
2023/07/09 07:29:35;;;;;;;7.28;3.05;;;27.70;45.10;;;;;;5149099;27;45256;-70
2023/07/09 07:32:02;;;;;;;3.67;2.80;;;27.70;44.90;;;;;;5149588;27;45469;-70
2023/07/09 07:34:29;;;;;;;4.00;2.75;;;27.80;44.90;;;;;;5149246;27;47548;-70
2023/07/09 07:36:56;;;;;;;6.18;2.97;;;27.80;44.90;;;;;;5149523;27;45367;-70
2023/07/09 07:39:24;;;;;;;4.28;2.85;;;27.90;45.00;;;;;;5149242;27;45226;-70
2023/07/09 07:41:51;;;;;;;6.80;2.90;;;27.90;45.00;;;;;;5149540;27;45244;-70
2023/07/09 07:44:18;;;;;;;7.82;2.95;;;27.90;44.90;;;;;;5140074;27;47015;-71
2023/07/09 07:46:45;;;;;;;4.40;2.70;;;28.00;45.40;;;;;;5144954;27;45389;-71
2023/07/09 07:49:12;;;;;;;5.63;2.85;;;28.00;45.20;;;;;;5138512;27;45457;-71
2023/07/09 07:51:39;;;;;;;4.30;2.70;;;28.00;45.10;;;;;;5128411;27;45204;-71
2023/07/09 07:54:06;;;;;;;4.38;2.83;;;28.10;45.20;;;;;;5128169;27;46894;-70
2023/07/09 07:56:34;;;;;;;4.28;2.72;;;28.10;45.20;;;;;;5133187;27;45504;-71
2023/07/09 07:59:01;;;;;;;5.80;2.80;;;28.10;45.10;;;;;;5141230;27;45521;-70
2023/07/09 08:01:28;;;;;;;8.20;3.10;;;28.20;45.00;;;;;;5147066;27;45442;-70
2023/07/09 08:03:54;;;;;;;4.38;2.85;;;28.20;45.00;;;;;;5148123;27;46728;-71
2023/07/09 08:06:21;;;;;;;4.95;3.17;;;28.20;45.00;;;;;;5132853;27;45417;-71
2023/07/09 08:08:48;;;;;;;4.07;2.80;;;28.20;44.90;;;;;;5142714;27;45442;-70
2023/07/09 08:11:15;;;;;;;8.85;3.10;;;28.30;44.90;;;;;;5147886;27;45523;-71
2023/07/09 08:13:43;;;;;;;4.13;2.90;;;28.30;44.90;;;;;;5133121;27;45431;-70
2023/07/09 08:16:11;;;;;;;3.53;2.88;;;28.30;45.00;;;;;;5143883;27;45400;-71
2023/07/09 08:18:38;;;;;;;5.18;3.25;;;28.40;45.00;;;;;;5138930;27;45414;-72
2023/07/09 08:21:05;;;;;;;5.35;2.88;;;28.40;45.10;;;;;;5134368;27;45327;-70
2023/07/09 08:23:32;;;;;;;3.65;3.25;;;28.50;45.30;;;;;;5142726;27;45695;-70
2023/07/09 08:26:01;;;;;;;5.20;2.83;;;28.50;45.40;;;;;;5147501;27;45439;-71
2023/07/09 08:28:28;;;;;;;7.93;3.05;;;28.50;45.20;;;;;;5143663;27;45400;-70
2023/07/09 08:30:57;;;;;;;7.93;3.08;;;28.50;45.20;;;;;;5141335;27;45516;-71
2023/07/09 08:33:24;;;;;;;5.07;3.00;;;28.60;45.40;;;;;;5134446;27;47342;-70
2023/07/09 08:35:51;;;;;;;4.97;2.72;;;28.60;45.30;;;;;;5140123;27;45571;-70
2023/07/09 08:38:18;;;;;;;6.18;3.20;;;28.60;45.40;;;;;;5140817;27;45465;-70
2023/07/09 08:40:51;;;;;;;4.35;2.90;;;28.70;45.40;;;;;;5146218;27;45502;-71
2023/07/09 08:43:22;;;;;;;5.88;2.88;;;28.70;45.40;;;;;;5136294;27;45263;-70
2023/07/09 08:45:51;;;;;;;5.05;2.92;;;28.70;45.50;;;;;;5147836;27;45492;-70
2023/07/09 08:48:21;;;;;;;4.50;2.85;;;28.80;45.60;;;;;;5147847;27;45314;-71
2023/07/09 08:50:49;;;;;;;4.78;3.47;;;28.80;45.50;;;;;;5150722;27;45403;-71
2023/07/09 08:53:19;;;;;;;4.03;2.95;;;28.80;45.90;;;;;;5105493;27;45517;-71
2023/07/09 08:55:46;;;;;;;5.00;2.78;;;28.90;46.10;;;;;;5104408;27;45325;-71
2023/07/09 08:58:15;;;;;;;6.32;3.17;;;28.90;45.70;;;;;;5094683;27;45564;-73
2023/07/09 09:00:44;;;;;;;7.97;3.00;;;29.00;46.60;;;;;;5091808;27;45253;-69
2023/07/09 09:03:16;;;;;;;7.75;3.35;;;29.00;46.20;;;;;;5101016;27;45607;-70
2023/07/09 09:05:46;;;;;;;10.85;3.92;;;29.10;46.40;;;;;;5090365;27;45244;-72
2023/07/09 09:08:16;;;;;;;3.90;3.25;;;29.10;46.70;;;;;;5103782;27;45465;-69
2023/07/09 09:10:45;;;;;;;5.22;2.95;;;29.20;46.90;;;;;;5085722;27;45475;-69
2023/07/09 09:13:13;;;;;;;7.53;3.67;;;29.30;47.40;;;;;;5103450;27;46347;-68
2023/07/09 09:15:41;;;;;;;6.75;3.42;;;29.40;46.80;;;;;;5102017;27;45474;-67
2023/07/09 09:18:20;;;;;;;5.53;2.90;;;29.40;46.30;;;;;;5104898;27;45314;-70
2023/07/09 09:20:53;;;;;;;5.80;3.33;;;29.50;46.60;;;;;;5109058;27;45483;-69
2023/07/09 09:23:20;;;;;;;5.90;2.92;;;29.60;46.30;;;;;;5107131;27;45467;-70
2023/07/09 09:25:51;;;;;;;3.78;3.17;;;29.60;45.60;;;;;;5107878;27;45511;-69
2023/07/09 09:28:18;;;;;;;4.68;3.40;;;29.60;45.00;;;;;;5106145;27;45457;-71
2023/07/09 09:30:44;;;;;;;5.68;3.28;;;29.70;45.00;;;;;;5103063;27;45863;-70
2023/07/09 09:33:12;;;;;;;3.45;3.13;;;29.70;44.80;;;;;;5096218;27;46259;-71
2023/07/09 09:35:40;;;;;;;5.47;3.17;;;29.80;44.70;;;;;;5106369;27;45456;-71
2023/07/09 09:38:13;;;;;;;6.10;3.00;;;29.80;44.70;;;;;;5110851;27;45229;-69
2023/07/09 09:40:40;;;;;;;3.85;3.22;;;29.90;44.80;;;;;;5116093;27;45466;-70
2023/07/09 09:43:12;;;;;;;6.05;3.10;;;29.90;45.60;;;;;;5113565;27;45331;-71
2023/07/09 09:45:39;;;;;;;3.70;2.88;;;29.90;44.90;;;;;;5104588;27;45400;-70
2023/07/09 09:48:13;;;;;;;3.83;3.17;;;30.00;44.90;;;;;;5105429;27;45520;-70
2023/07/09 09:50:41;;;;;;;6.60;3.30;;;30.00;44.50;;;;;;5104029;27;45516;-71
2023/07/09 09:53:08;;;;;;;5.13;3.00;;;30.10;44.30;;;;;;5145742;27;46381;-71
2023/07/09 09:55:40;;;;;;;4.28;3.03;;;30.10;44.10;;;;;;5144168;27;45430;-70
2023/07/09 09:58:13;;;;;;;3.47;3.13;;;30.10;44.00;;;;;;5130651;27;45310;-71
2023/07/09 10:00:39;;;;;;;4.18;3.20;;;30.20;43.90;;;;;;5130332;27;45364;-70
2023/07/09 10:03:06;;;;;;;4.93;2.90;;;30.30;43.00;;;;;;5129894;27;46682;-71
2023/07/09 10:05:39;;;;;;;4.65;2.45;;;30.30;42.80;;;;;;5130186;27;44965;-70
2023/07/09 10:08:09;;;;;;;3.95;3.08;;;30.30;42.80;;;;;;5130095;27;45292;-71
2023/07/09 10:10:37;;;;;;;3.33;2.50;;;30.40;42.90;;;;;;5130152;27;45431;-71
2023/07/09 10:13:08;;;;;;;8.32;2.90;;;30.50;42.90;;;;;;5129776;27;46782;-70
2023/07/09 10:15:38;;;;;;;3.00;2.70;;;30.50;42.80;;;;;;5130792;27;45356;-70
2023/07/09 10:18:15;;;;;;;3.95;2.80;;;30.60;42.90;;;;;;5130083;27;45348;-70
2023/07/09 10:20:44;;;;;;;6.18;2.75;;;30.60;42.80;;;;;;5130193;27;45262;-71
2023/07/09 10:23:17;;;;;;;5.95;3.03;;;30.60;42.80;;;;;;5129877;27;46471;-71
2023/07/09 10:25:49;;;;;;;4.60;2.80;;;30.70;42.80;;;;;;5129501;27;45573;-71
2023/07/09 10:28:41;;;;;;;3.63;2.80;;;30.70;42.90;;;;;;5129582;27;45321;-70
2023/07/09 10:31:11;;;;;;;3.72;2.80;;;30.70;42.80;;;;;;5129226;27;45327;-71
2023/07/09 10:33:45;;;;;;;3.22;2.90;;;30.70;42.80;;;;;;5129151;27;46350;-70
2023/07/09 10:36:22;;;;;;;2.67;2.33;;;30.80;42.80;;;;;;5129039;27;45299;-70
2023/07/09 10:38:52;;;;;;;3.10;2.60;;;30.80;42.90;;;;;;5129009;27;45276;-70
2023/07/09 10:41:20;;;;;;;2.65;2.42;;;30.80;42.80;;;;;;5128849;27;45554;-70
2023/07/09 10:43:48;;;;;;;3.80;2.97;;;30.90;42.90;;;;;;5129570;27;46154;-70
2023/07/09 10:46:16;;;;;;;2.78;2.58;;;30.90;43.00;;;;;;5129125;27;45327;-70
2023/07/09 10:48:44;;;;;;;3.67;2.65;;;30.90;42.90;;;;;;5129456;27;45454;-71
2023/07/09 10:51:17;;;;;;;3.10;2.80;;;31.00;42.90;;;;;;5129247;27;45877;-70
2023/07/09 10:53:45;;;;;;;3.38;2.63;;;31.00;42.90;;;;;;5129180;27;46379;-70
2023/07/09 10:56:13;;;;;;;2.88;2.60;;;31.00;42.90;;;;;;5129278;27;45480;-70
2023/07/09 10:58:44;;;;;;;3.03;2.63;;;31.10;42.90;;;;;;5129243;27;45391;-70
2023/07/09 11:01:13;;;;;;;4.82;2.65;;;31.10;42.80;;;;;;5129118;27;45408;-70
2023/07/09 11:03:43;;;;;;;3.35;2.67;;;31.10;42.80;;;;;;5128988;27;46271;-71
2023/07/09 11:06:15;;;;;;;3.30;2.67;;;31.20;42.90;;;;;;5128783;27;45249;-70
2023/07/09 11:08:42;;;;;;;2.90;2.63;;;31.20;42.90;;;;;;5129221;27;45281;-70
2023/07/09 11:11:11;;;;;;;3.65;2.78;;;31.30;42.90;;;;;;5129066;27;45359;-71
2023/07/09 11:13:40;;;;;;;3.90;2.55;;;31.30;42.60;;;;;;5128834;27;47189;-70
2023/07/09 11:16:08;;;;;;;5.65;2.70;;;31.30;42.40;;;;;;5128774;27;45415;-70
2023/07/09 11:18:36;;;;;;;3.13;2.55;;;31.40;42.40;;;;;;5128896;27;45394;-71
2023/07/09 11:21:05;;;;;;;3.25;2.50;;;31.40;42.50;;;;;;5128936;27;45323;-71
2023/07/09 11:23:39;;;;;;;3.83;2.45;;;31.50;42.60;;;;;;5128867;27;45530;-71
2023/07/09 11:26:12;;;;;;;2.67;2.30;;;31.50;43.10;;;;;;5128864;27;45254;-70
2023/07/09 11:28:41;;;;;;;4.72;2.33;;;31.60;42.60;;;;;;5128864;27;45306;-71
2023/07/09 11:31:15;;;;;;;2.55;2.35;;;31.60;42.60;;;;;;5128607;27;45329;-70
2023/07/09 11:33:46;;;;;;;3.47;2.50;;;31.70;42.60;;;;;;5128432;27;46415;-70
2023/07/09 11:36:15;;;;;;;2.70;2.20;;;31.70;42.50;;;;;;5128495;27;45355;-71
2023/07/09 11:38:42;;;;;;;2.30;2.10;;;31.80;42.40;;;;;;5128722;27;45352;-70
2023/07/09 11:41:28;;;;;;;4.72;2.85;;;31.80;42.40;;;;;;5128402;27;45415;-71
2023/07/09 11:44:03;;;;;;;2.95;2.50;;;31.90;42.40;;;;;;5127685;27;45449;-71
2023/07/09 11:46:31;;;;;;;2.40;2.20;;;31.90;42.20;;;;;;5128281;27;45413;-71
2023/07/09 11:48:58;;;;;;;2.95;2.30;;;31.90;42.10;;;;;;5128513;27;45356;-71
2023/07/09 11:51:29;;;;;;;2.80;2.33;;;32.00;42.10;;;;;;5127781;27;45265;-70
2023/07/09 11:53:56;;;;;;;3.22;2.50;;;32.10;42.70;;;;;;5127404;27;45343;-70
2023/07/09 11:56:25;;;;;;;3.00;2.05;;;32.10;42.00;;;;;;5128255;27;45243;-70
2023/07/09 11:58:52;;;;;;;3.00;2.40;;;32.10;41.90;;;;;;5128263;27;45442;-71
2023/07/09 12:01:20;;;;;;;3.58;2.25;;;32.20;41.80;;;;;;5128306;27;45372;-70
2023/07/09 12:03:48;;;;;;;2.67;2.40;;;32.20;41.80;;;;;;5127944;27;45471;-71
2023/07/09 12:06:19;;;;;;;2.72;2.47;;;32.30;41.80;;;;;;5128096;27;45280;-72
2023/07/09 12:08:46;;;;;;;2.17;1.98;;;32.30;41.70;;;;;;5128028;27;45336;-71
2023/07/09 12:11:22;;;;;;;3.28;2.53;;;32.30;41.50;;;;;;5128241;27;45366;-71
2023/07/09 12:13:49;;;;;;;3.35;2.50;;;32.40;41.50;;;;;;5128064;27;46390;-71
2023/07/09 12:16:21;;;;;;;2.80;2.50;;;32.40;41.40;;;;;;5127932;27;45249;-71
2023/07/09 12:18:50;;;;;;;2.72;2.22;;;32.50;41.40;;;;;;5128070;27;45270;-71
2023/07/09 12:21:16;;;;;;;2.47;2.28;;;32.50;41.30;;;;;;5127960;27;45413;-70
2023/07/09 12:23:43;;;;;;;3.10;2.38;;;32.50;41.20;;;;;;5127808;27;46446;-71
2023/07/09 12:26:13;;;;;;;3.03;2.53;;;32.60;41.20;;;;;;5128057;27;45454;-71
2023/07/09 12:28:40;;;;;;;2.90;2.15;;;32.60;41.10;;;;;;5127925;27;45376;-70
2023/07/09 12:31:12;;;;;;;2.75;2.55;;;32.70;41.10;;;;;;5127962;27;45322;-71
2023/07/09 12:33:39;;;;;;;3.05;2.15;;;32.70;41.00;;;;;;5127719;27;46298;-71
2023/07/09 12:36:07;;;;;;;3.15;2.28;;;32.80;41.00;;;;;;5127603;27;45375;-70
2023/07/09 12:38:41;;;;;;;2.60;2.40;;;32.80;40.80;;;;;;5127549;27;45332;-70
2023/07/09 12:41:09;;;;;;;2.50;2.05;;;32.80;40.80;;;;;;5127710;27;45434;-71
2023/07/09 12:43:35;;;;;;;2.35;2.03;;;32.90;40.70;;;;;;5127482;27;46395;-70
2023/07/09 12:46:02;;;;;;;2.75;2.35;;;33.00;40.70;;;;;;5127726;27;45322;-71
2023/07/09 12:48:29;;;;;;;2.72;2.17;;;33.00;40.60;;;;;;5127612;27;45288;-71
2023/07/09 12:50:57;;;;;;;2.45;2.25;;;33.00;40.60;;;;;;5127079;27;45363;-70